createdAt,value
2019-02-14T00:00:07.726Z,78.39
2019-02-14T00:02:33.776Z,79.11
2019-02-14T00:04:59.594Z,79.23
2019-02-14T00:07:25.388Z,79.39
2019-02-14T00:09:51.271Z,79.58
2019-02-14T00:12:17.327Z,78.74
2019-02-14T00:14:43.142Z,78.62
2019-02-14T00:17:08.945Z,78.73
2019-02-14T00:19:34.806Z,78.92
2019-02-14T00:22:00.623Z,79.05
2019-02-14T00:24:29.238Z,79.24
2019-02-14T00:26:55.112Z,79.52
2019-02-14T00:29:20.921Z,79.95
2019-02-14T00:31:47.008Z,79.95
2019-02-14T00:34:13.136Z,79.60
2019-02-14T00:36:39.329Z,79.52
2019-02-14T00:39:05.577Z,79.53
2019-02-14T00:41:31.653Z,80.06
2019-02-14T00:43:57.484Z,80.30
2019-02-14T00:46:23.385Z,80.24
2019-02-14T00:48:49.601Z,80.39
2019-02-14T00:51:15.412Z,80.42
2019-02-14T00:53:41.238Z,80.02
2019-02-14T00:56:07.347Z,79.77
2019-02-14T00:58:36.095Z,79.84
2019-02-14T01:01:02.006Z,80.10
2019-02-14T01:03:30.730Z,79.95
2019-02-14T01:05:56.637Z,80.43
2019-02-14T01:08:27.252Z,80.46
2019-02-14T01:10:53.060Z,80.29
2019-02-14T01:13:22.224Z,80.26
2019-02-14T01:15:49.166Z,80.26
2019-02-14T01:18:14.943Z,80.97
2019-02-14T01:20:40.768Z,81.16
2019-02-14T01:23:06.665Z,81.19
2019-02-14T01:25:32.504Z,81.14
2019-02-14T01:27:58.292Z,81.02
2019-02-14T01:30:27.145Z,80.90
2019-02-14T01:32:53.230Z,80.89
2019-02-14T01:35:22.246Z,80.85
2019-02-14T01:37:48.301Z,80.65
2019-02-14T01:40:16.879Z,80.66
2019-02-14T01:42:42.976Z,80.49
2019-02-14T01:45:21.815Z,80.54
2019-02-14T01:47:49.576Z,80.46
2019-02-14T01:50:18.228Z,80.74
2019-02-14T01:52:44.040Z,80.75
2019-02-14T01:55:09.863Z,80.96
2019-02-14T01:57:35.704Z,80.82
2019-02-14T02:00:01.718Z,80.84
2019-02-14T02:02:27.843Z,80.63
2019-02-14T02:04:53.671Z,80.52
2019-02-14T02:07:19.907Z,80.49
2019-02-14T02:09:45.777Z,80.68
2019-02-14T02:12:12.105Z,80.74
2019-02-14T02:14:38.224Z,80.63
2019-02-14T02:17:04.053Z,80.54
2019-02-14T02:19:30.180Z,80.82
2019-02-14T02:21:56.011Z,80.99
2019-02-14T02:24:22.114Z,81.37
2019-02-14T02:26:52.609Z,81.40
2019-02-14T02:29:18.480Z,81.21
2019-02-14T02:31:44.299Z,81.32
2019-02-14T02:34:10.085Z,81.54
2019-02-14T02:36:35.917Z,81.91
2019-02-14T02:39:05.994Z,81.95
2019-02-14T02:41:31.824Z,81.99
2019-02-14T02:43:57.723Z,82.01
2019-02-14T02:46:23.539Z,82.38
2019-02-14T02:48:52.298Z,82.14
2019-02-14T02:51:18.408Z,82.05
2019-02-14T02:53:46.720Z,81.61
2019-02-14T02:56:12.565Z,81.48
2019-02-14T02:58:40.704Z,81.56
2019-02-14T03:01:06.501Z,81.48
2019-02-14T03:03:36.156Z,81.54
2019-02-14T03:06:10.197Z,81.62
2019-02-14T03:08:29.961Z,81.59
2019-02-14T03:10:55.859Z,81.36
2019-02-14T03:13:21.949Z,80.96
2019-02-14T03:15:48.013Z,80.83
2019-02-14T03:18:14.103Z,80.82
2019-02-14T03:20:43.228Z,80.88
2019-02-14T03:23:09.093Z,80.98
2019-02-14T03:25:38.246Z,81.04
2019-02-14T03:28:04.058Z,81.12
2019-02-14T03:30:33.003Z,81.25
2019-02-14T03:32:58.813Z,81.16
2019-02-14T03:35:27.395Z,80.78
2019-02-14T03:37:53.237Z,80.30
2019-02-14T03:40:22.066Z,79.76
2019-02-14T03:42:48.166Z,79.56
2019-02-14T03:45:18.313Z,79.82
2019-02-14T03:47:44.113Z,79.80
2019-02-14T03:50:11.130Z,79.98
2019-02-14T03:52:37.076Z,80.24
2019-02-14T03:55:04.714Z,80.04
2019-02-14T03:57:30.543Z,80.04
2019-02-14T03:59:56.362Z,80.71
2019-02-14T04:02:22.194Z,80.46
2019-02-14T04:04:48.017Z,80.66
2019-02-14T04:07:17.577Z,80.96
2019-02-14T04:09:43.731Z,80.88
2019-02-14T04:12:11.718Z,80.73
2019-02-14T04:14:44.756Z,80.65
2019-02-14T04:17:10.762Z,80.76
2019-02-14T04:19:36.869Z,80.27
2019-02-14T04:22:02.995Z,80.03
2019-02-14T04:24:37.181Z,80.16
2019-02-14T04:27:03.414Z,80.38
2019-02-14T04:29:29.464Z,80.71
2019-02-14T04:31:55.328Z,80.86
2019-02-14T04:34:21.542Z,81.04
2019-02-14T04:36:47.381Z,81.15
2019-02-14T04:39:13.452Z,81.00
2019-02-14T04:41:39.548Z,80.80
2019-02-14T04:44:05.642Z,80.94
2019-02-14T04:46:31.669Z,81.63
2019-02-14T04:48:57.502Z,81.65
2019-02-14T04:51:25.274Z,81.83
2019-02-14T04:53:54.262Z,81.92
2019-02-14T04:56:20.846Z,82.03
2019-02-14T04:58:46.676Z,81.75
2019-02-14T05:01:12.581Z,81.36
2019-02-14T05:03:38.386Z,81.60
2019-02-14T05:06:04.186Z,81.44
2019-02-14T05:08:30.007Z,81.80
2019-02-14T05:10:58.562Z,81.63
2019-02-14T05:13:24.399Z,81.39
2019-02-14T05:15:52.839Z,81.72
2019-02-14T05:18:18.706Z,81.84
2019-02-14T05:20:47.514Z,82.48
2019-02-14T05:23:13.342Z,82.32
2019-02-14T05:25:42.409Z,81.96
2019-02-14T05:28:08.269Z,81.96
2019-02-14T05:30:37.386Z,81.97
2019-02-14T05:33:03.174Z,82.50
2019-02-14T05:35:29.012Z,82.31
2019-02-14T05:37:54.805Z,82.25
2019-02-14T05:40:21.013Z,82.62
2019-02-14T05:42:49.701Z,82.58
2019-02-14T05:45:15.629Z,82.63
2019-02-14T05:47:43.630Z,82.41
2019-02-14T05:50:11.022Z,82.25
2019-02-14T05:52:39.590Z,82.23
2019-02-14T05:55:10.172Z,82.12
2019-02-14T05:57:36.379Z,82.27
2019-02-14T06:00:05.339Z,82.31
2019-02-14T06:02:32.227Z,81.73
2019-02-14T06:04:58.633Z,82.99
2019-02-14T06:07:24.547Z,82.99
2019-02-14T06:09:50.343Z,83.12
2019-02-14T06:12:16.127Z,83.14
2019-02-14T06:14:42.038Z,83.07
2019-02-14T06:17:07.857Z,83.06
2019-02-14T06:19:36.476Z,82.92
2019-02-14T06:22:02.342Z,83.16
2019-02-14T06:24:31.054Z,83.07
2019-02-14T06:26:56.960Z,82.77
2019-02-14T06:29:26.067Z,82.89
2019-02-14T06:31:51.871Z,83.30
2019-02-14T06:34:20.683Z,83.10
2019-02-14T06:36:46.506Z,82.65
2019-02-14T06:39:15.359Z,82.87
2019-02-14T06:41:41.252Z,83.40
2019-02-14T06:44:10.238Z,83.86
2019-02-14T06:46:36.304Z,83.55
2019-02-14T06:49:02.396Z,83.26
2019-02-14T06:51:28.454Z,82.83
2019-02-14T06:53:54.276Z,82.90
2019-02-14T06:56:20.118Z,83.04
2019-02-14T06:58:45.931Z,82.90
2019-02-14T07:01:15.074Z,82.94
2019-02-14T07:03:40.871Z,82.80
2019-02-14T07:06:09.834Z,82.66
2019-02-14T07:08:35.662Z,82.45
2019-02-14T07:11:04.507Z,82.09
2019-02-14T07:13:30.327Z,81.20
2019-02-14T07:15:58.442Z,81.20
2019-02-14T07:18:24.261Z,80.07
2019-02-14T07:20:56.054Z,80.07
2019-02-14T07:23:28.845Z,79.06
2019-02-14T07:25:54.705Z,77.33
2019-02-14T07:28:20.492Z,77.33
2019-02-14T07:30:46.291Z,75.82
2019-02-14T07:33:12.137Z,72.63
2019-02-14T07:35:37.958Z,70.18
2019-02-14T07:38:07.222Z,68.29
2019-02-14T07:40:33.037Z,67.45
2019-02-14T07:43:20.950Z,67.23
2019-02-14T07:45:46.762Z,64.82
2019-02-14T07:48:12.579Z,62.26
2019-02-14T07:50:38.388Z,59.64
2019-02-14T07:53:04.205Z,56.24
2019-02-14T07:55:30.315Z,54.88
2019-02-14T07:57:56.755Z,54.30
2019-02-14T08:00:22.646Z,55.88
2019-02-14T08:02:48.434Z,55.58
2019-02-14T08:05:14.565Z,55.56
2019-02-14T08:07:40.385Z,55.91
2019-02-14T08:10:14.232Z,54.96
2019-02-14T08:12:40.445Z,53.67
2019-02-14T08:15:11.858Z,55.51
2019-02-14T08:17:37.660Z,54.60
2019-02-14T08:20:10.547Z,52.95
2019-02-14T08:22:39.931Z,52.53
2019-02-14T08:25:08.051Z,49.93
2019-02-14T08:27:33.899Z,47.14
2019-02-14T08:29:59.710Z,48.03
2019-02-14T08:32:25.545Z,49.70
2019-02-14T08:34:51.379Z,51.58
2019-02-14T08:37:17.167Z,52.63
2019-02-14T08:39:42.994Z,53.33
2019-02-14T08:42:08.824Z,54.60
2019-02-14T08:44:34.646Z,57.07
2019-02-14T08:47:00.449Z,58.51
2019-02-14T08:49:26.250Z,57.57
2019-02-14T08:51:52.360Z,55.94
2019-02-14T08:54:18.135Z,55.30
2019-02-14T08:56:44.239Z,53.49
2019-02-14T08:59:10.054Z,48.83
2019-02-14T09:01:35.871Z,44.68
2019-02-14T09:04:01.667Z,42.89
2019-02-14T09:06:27.533Z,42.10
2019-02-14T09:08:53.614Z,42.65
2019-02-14T09:11:19.396Z,44.12
2019-02-14T09:13:45.475Z,45.39
2019-02-14T09:16:11.306Z,48.03
2019-02-14T09:18:37.468Z,49.67
2019-02-14T09:21:03.291Z,49.31
2019-02-14T09:23:29.093Z,49.11
2019-02-14T09:25:55.183Z,47.65
2019-02-14T09:28:20.999Z,45.64
2019-02-14T09:30:46.838Z,43.31
2019-02-14T09:33:12.937Z,41.75
2019-02-14T09:35:38.742Z,39.95
2019-02-14T09:38:24.502Z,38.69
2019-02-14T09:40:50.335Z,36.62
2019-02-14T09:43:16.128Z,36.24
2019-02-14T09:45:41.924Z,36.73
2019-02-14T09:48:07.718Z,37.56
2019-02-14T09:50:33.510Z,36.81
2019-02-14T09:52:59.591Z,35.75
2019-02-14T09:55:25.417Z,37.30
2019-02-14T09:57:51.238Z,37.30
2019-02-14T10:00:18.044Z,35.94
2019-02-14T10:02:44.152Z,35.32
2019-02-14T10:05:10.034Z,35.94
2019-02-14T10:07:35.962Z,35.94
2019-02-14T10:10:03.722Z,35.17
2019-02-14T10:12:29.536Z,34.80
2019-02-14T10:14:55.596Z,34.80
2019-02-14T10:17:22.408Z,35.09
2019-02-14T10:19:48.390Z,35.09
2019-02-14T10:22:14.266Z,35.10
2019-02-14T10:24:40.295Z,34.09
2019-02-14T10:27:06.101Z,32.42
2019-02-14T10:29:31.924Z,33.12
2019-02-14T10:31:57.731Z,32.21
2019-02-14T10:34:23.517Z,31.75
2019-02-14T10:36:52.104Z,31.33
2019-02-14T10:39:17.887Z,31.15
2019-02-14T10:41:48.794Z,31.22
2019-02-14T10:44:14.645Z,31.62
2019-02-14T10:46:43.705Z,32.83
2019-02-14T10:49:09.504Z,31.77
2019-02-14T10:51:38.399Z,31.38
2019-02-14T10:54:04.470Z,31.08
2019-02-14T10:56:33.370Z,31.08
2019-02-14T10:58:59.291Z,31.16
2019-02-14T11:01:25.212Z,31.16
2019-02-14T11:03:51.435Z,32.06
2019-02-14T11:06:17.273Z,31.49
2019-02-14T11:08:43.329Z,30.58
2019-02-14T11:11:09.261Z,28.81
2019-02-14T11:13:38.083Z,28.19
2019-02-14T11:16:04.296Z,26.64
2019-02-14T11:18:32.924Z,26.74
2019-02-14T11:20:58.760Z,25.72
2019-02-14T11:23:27.505Z,25.50
2019-02-14T11:25:53.351Z,25.91
2019-02-14T11:28:22.311Z,26.43
2019-02-14T11:30:48.140Z,25.95
2019-02-14T11:33:16.699Z,25.98
2019-02-14T11:35:42.525Z,25.85
2019-02-14T11:38:10.856Z,25.53
2019-02-14T11:40:36.957Z,25.77
2019-02-14T11:43:02.764Z,26.47
2019-02-14T11:45:28.597Z,26.35
2019-02-14T11:47:54.411Z,25.07
2019-02-14T11:50:22.475Z,24.88
2019-02-14T11:52:48.311Z,25.41
2019-02-14T11:55:16.969Z,26.02
2019-02-14T11:57:42.800Z,26.21
2019-02-14T12:00:26.520Z,26.00
2019-02-14T12:02:55.696Z,27.58
2019-02-14T12:05:20.197Z,27.61
2019-02-14T12:07:46.344Z,27.61
2019-02-14T12:10:13.897Z,27.65
2019-02-14T12:12:40.086Z,27.38
2019-02-14T12:15:08.300Z,27.64
2019-02-14T12:17:34.123Z,26.76
2019-02-14T12:22:25.836Z,28.06
2019-02-14T12:24:51.651Z,26.77
2019-02-14T12:27:17.461Z,25.79
2019-02-14T12:29:43.552Z,26.75
2019-02-14T12:32:09.372Z,28.58
2019-02-14T12:34:35.443Z,30.18
2019-02-14T12:37:01.242Z,29.89
2019-02-14T12:39:27.341Z,30.05
2019-02-14T12:41:53.133Z,31.21
2019-02-14T12:44:19.192Z,31.02
2019-02-14T12:46:47.860Z,30.96
2019-02-14T12:49:13.675Z,32.43
2019-02-14T12:51:42.688Z,31.65
2019-02-14T12:54:11.342Z,31.30
2019-02-14T12:56:37.207Z,29.69
2019-02-14T12:59:03.047Z,28.93
2019-02-14T13:01:28.873Z,30.03
2019-02-14T13:03:54.671Z,29.68
2019-02-14T13:06:20.747Z,30.27
2019-02-14T13:08:49.645Z,30.44
2019-02-14T13:11:15.441Z,29.72
2019-02-14T13:13:49.819Z,28.53
2019-02-14T13:16:12.280Z,30.71
2019-02-14T13:18:38.086Z,30.03
2019-02-14T13:21:05.768Z,30.03
2019-02-14T13:23:31.768Z,29.72
2019-02-14T13:25:57.599Z,29.72
2019-02-14T13:28:26.514Z,28.22
2019-02-14T13:30:52.653Z,29.61
2019-02-14T13:33:18.444Z,31.03
2019-02-14T13:35:44.268Z,31.15
2019-02-14T13:38:10.052Z,31.87
2019-02-14T13:40:38.211Z,32.67
2019-02-14T13:43:26.130Z,33.03
2019-02-14T13:45:52.028Z,33.28
2019-02-14T13:48:17.822Z,31.83
2019-02-14T13:50:43.608Z,32.21
2019-02-14T13:53:09.426Z,30.87
2019-02-14T13:55:35.341Z,29.87
2019-02-14T13:58:01.401Z,29.77
2019-02-14T14:00:28.500Z,29.45
2019-02-14T14:02:54.310Z,30.84
2019-02-14T14:05:20.155Z,30.73
2019-02-14T14:07:45.982Z,28.18
2019-02-14T14:10:11.872Z,29.19
2019-02-14T14:12:53.184Z,30.67
2019-02-14T14:15:19.637Z,31.67
2019-02-14T14:17:45.687Z,30.24
2019-02-14T14:20:11.630Z,30.93
2019-02-14T14:22:37.593Z,32.03
2019-02-14T14:25:05.094Z,33.29
2019-02-14T14:27:31.303Z,32.26
2019-02-14T14:29:58.804Z,33.11
2019-02-14T14:32:24.785Z,34.11
2019-02-14T14:34:50.868Z,31.17
2019-02-14T14:37:19.713Z,30.95
2019-02-14T14:39:47.866Z,29.62
2019-02-14T14:42:27.775Z,32.00
2019-02-14T14:44:53.626Z,32.00
2019-02-14T14:47:19.422Z,30.83
2019-02-14T14:49:45.478Z,29.90
2019-02-14T14:52:11.279Z,28.57
2019-02-14T14:54:37.115Z,30.79
2019-02-14T14:57:03.190Z,33.62
2019-02-14T14:59:28.996Z,33.59
2019-02-14T15:01:54.843Z,33.51
2019-02-14T15:04:20.899Z,32.40
2019-02-14T15:06:47.119Z,32.97
2019-02-14T15:09:12.917Z,33.83
2019-02-14T15:11:38.736Z,34.39
2019-02-14T15:14:04.520Z,34.01
2019-02-14T15:16:30.355Z,34.21
2019-02-14T15:18:56.447Z,33.42
2019-02-14T15:21:22.604Z,32.42
2019-02-14T15:23:48.425Z,32.22
2019-02-14T15:26:14.279Z,32.08
2019-02-14T15:28:40.082Z,32.24
2019-02-14T15:33:42.642Z,32.18
2019-02-14T15:36:08.485Z,31.88
2019-02-14T15:38:35.045Z,31.74
2019-02-14T15:41:01.986Z,31.82
2019-02-14T15:43:27.799Z,31.61
2019-02-14T15:45:53.621Z,32.08
2019-02-14T15:48:19.541Z,32.84
2019-02-14T15:50:45.386Z,34.74
2019-02-14T15:53:11.189Z,35.72
2019-02-14T15:55:39.082Z,34.34
2019-02-14T15:58:07.290Z,34.01
2019-02-14T16:00:35.147Z,34.48
2019-02-14T16:03:06.973Z,35.21
2019-02-14T16:05:32.772Z,35.21
2019-02-14T16:08:00.500Z,35.70
2019-02-14T16:10:27.749Z,36.62
2019-02-14T16:12:54.363Z,36.84
2019-02-14T16:15:20.432Z,37.53
2019-02-14T16:17:46.524Z,37.47
2019-02-14T16:20:12.650Z,37.92
2019-02-14T16:22:40.214Z,38.90
2019-02-14T16:25:06.976Z,38.74
2019-02-14T16:27:32.937Z,39.72
2019-02-14T16:29:58.753Z,40.47
2019-02-14T16:32:24.564Z,40.94
2019-02-14T16:34:50.381Z,40.47
2019-02-14T16:37:16.474Z,41.20
2019-02-14T16:39:51.315Z,42.50
2019-02-14T16:42:10.022Z,43.34
2019-02-14T16:44:36.120Z,43.73
2019-02-14T16:47:01.954Z,44.69
2019-02-14T16:49:27.754Z,45.98
2019-02-14T16:51:53.596Z,45.95
2019-02-14T16:54:19.671Z,47.08
2019-02-14T16:56:45.766Z,48.01
2019-02-14T16:59:11.585Z,48.84
2019-02-14T17:01:37.423Z,49.85
2019-02-14T17:04:06.032Z,49.64
2019-02-14T17:06:32.125Z,50.48
2019-02-14T17:09:01.235Z,51.13
2019-02-14T17:11:27.058Z,51.64
2019-02-14T17:13:52.852Z,51.41
2019-02-14T17:16:18.690Z,52.01
2019-02-14T17:18:44.539Z,52.10
2019-02-14T17:21:10.330Z,51.23
2019-02-14T17:23:36.291Z,52.40
2019-02-14T17:26:04.987Z,53.23
2019-02-14T17:28:31.111Z,53.90
2019-02-14T17:31:00.219Z,54.07
2019-02-14T17:33:26.458Z,54.18
2019-02-14T17:35:55.674Z,54.29
2019-02-14T17:38:21.546Z,55.16
2019-02-14T17:40:50.124Z,55.80
2019-02-14T17:43:16.212Z,55.57
2019-02-14T17:45:45.028Z,55.09
2019-02-14T17:48:11.159Z,55.36
2019-02-14T17:50:37.228Z,55.67
2019-02-14T17:53:03.320Z,55.34
2019-02-14T17:55:29.394Z,55.84
2019-02-14T17:57:58.025Z,55.73
2019-02-14T18:00:23.863Z,56.03
2019-02-14T18:02:52.783Z,56.73
2019-02-14T18:05:18.618Z,57.20
2019-02-14T18:07:47.403Z,57.50
2019-02-14T18:10:13.326Z,56.86
2019-02-14T18:12:42.163Z,56.38
2019-02-14T18:15:10.571Z,56.64
2019-02-14T18:17:36.399Z,56.38
2019-02-14T18:20:03.032Z,56.77
2019-02-14T18:22:33.089Z,57.30
2019-02-14T18:24:59.314Z,58.40
2019-02-14T18:27:25.445Z,58.22
2019-02-14T18:29:51.276Z,58.31
2019-02-14T18:32:17.082Z,58.41
2019-02-14T18:34:43.206Z,59.23
2019-02-14T18:37:09.229Z,59.80
2019-02-14T18:39:38.089Z,60.30
2019-02-14T18:42:04.197Z,60.84
2019-02-14T18:44:32.858Z,61.12
2019-02-14T18:46:58.952Z,61.22
2019-02-14T18:49:28.116Z,61.63
2019-02-14T18:51:53.918Z,61.77
2019-02-14T18:54:20.077Z,61.68
2019-02-14T18:56:45.871Z,62.05
2019-02-14T18:59:15.251Z,61.33
2019-02-14T19:01:41.295Z,61.19
2019-02-14T19:04:07.124Z,60.88
2019-02-14T19:06:32.922Z,61.07
2019-02-14T19:08:58.743Z,61.97
2019-02-14T19:11:27.560Z,61.91
2019-02-14T19:13:53.380Z,62.07
2019-02-14T19:16:22.398Z,61.58
2019-02-14T19:18:48.186Z,62.15
2019-02-14T19:21:16.805Z,62.56
2019-02-14T19:23:42.615Z,62.63
2019-02-14T19:26:11.585Z,62.35
2019-02-14T19:28:37.426Z,62.85
2019-02-14T19:31:06.377Z,62.68
2019-02-14T19:33:32.528Z,62.63
2019-02-14T19:36:00.110Z,62.90
2019-02-14T19:38:26.198Z,63.04
2019-02-14T19:40:51.999Z,63.41
2019-02-14T19:43:17.833Z,63.53
2019-02-14T19:45:43.664Z,64.46
2019-02-14T19:48:12.602Z,64.46
2019-02-14T19:50:38.719Z,64.21
2019-02-14T19:53:07.441Z,64.44
2019-02-14T19:55:33.550Z,64.93
2019-02-14T19:58:02.210Z,65.44
2019-02-14T20:00:27.995Z,65.79
2019-02-14T20:02:56.756Z,66.02
2019-02-14T20:05:22.577Z,66.21
2019-02-14T20:07:51.494Z,66.05
2019-02-14T20:10:17.528Z,65.94
2019-02-14T20:12:46.555Z,65.92
2019-02-14T20:15:18.862Z,66.47
2019-02-14T20:17:44.689Z,67.54
2019-02-14T20:20:10.547Z,67.53
2019-02-14T20:22:36.720Z,67.53
2019-02-14T20:25:06.597Z,67.27
2019-02-14T20:27:32.753Z,67.53
2019-02-14T20:29:58.601Z,67.29
2019-02-14T20:32:24.389Z,67.25
2019-02-14T20:34:50.185Z,67.12
2019-02-14T20:37:16.262Z,67.05
2019-02-14T20:39:42.055Z,66.92
2019-02-14T20:42:08.146Z,68.12
2019-02-14T20:44:36.951Z,69.32
2019-02-14T20:47:03.059Z,69.24
2019-02-14T20:49:32.209Z,68.80
2019-02-14T20:51:58.280Z,69.17
2019-02-14T20:54:24.102Z,68.72
2019-02-14T20:56:51.608Z,68.84
2019-02-14T20:59:17.417Z,68.86
2019-02-14T21:01:43.385Z,69.19
2019-02-14T21:04:09.204Z,69.34
2019-02-14T21:06:38.040Z,69.16
2019-02-14T21:09:04.452Z,69.57
2019-02-14T21:11:33.352Z,69.44
2019-02-14T21:13:59.154Z,69.53
2019-02-14T21:16:27.725Z,69.79
2019-02-14T21:18:53.558Z,69.88
2019-02-14T21:21:22.560Z,69.44
2019-02-14T21:23:48.396Z,68.99
2019-02-14T21:26:17.230Z,69.23
2019-02-14T21:28:43.085Z,69.14
2019-02-14T21:31:08.917Z,69.32
2019-02-14T21:33:34.725Z,69.05
2019-02-14T21:36:00.545Z,68.96
2019-02-14T21:38:29.262Z,69.26
2019-02-14T21:40:55.170Z,68.75
2019-02-14T21:43:24.224Z,69.03
2019-02-14T21:45:50.042Z,69.47
2019-02-14T21:48:18.725Z,69.51
2019-02-14T21:50:44.483Z,69.48
2019-02-14T21:53:13.087Z,68.75
2019-02-14T21:55:38.893Z,69.41
2019-02-14T21:58:07.565Z,70.34
2019-02-14T22:00:33.446Z,71.63
2019-02-14T22:03:03.108Z,72.35
2019-02-14T22:05:28.991Z,72.76
2019-02-14T22:07:57.814Z,72.71
2019-02-14T22:10:23.657Z,73.09
2019-02-14T22:12:49.473Z,73.14
2019-02-14T22:15:21.302Z,72.38
2019-02-14T22:17:47.204Z,71.85
2019-02-14T22:20:12.971Z,72.11
2019-02-14T22:22:39.141Z,72.27
2019-02-14T22:25:07.459Z,72.62
2019-02-14T22:27:33.267Z,72.61
2019-02-14T22:29:59.364Z,72.85
2019-02-14T22:32:25.189Z,73.21
2019-02-14T22:34:54.012Z,73.60
2019-02-14T22:37:19.801Z,73.46
2019-02-14T22:39:48.372Z,73.72
2019-02-14T22:42:14.200Z,73.68
2019-02-14T22:44:40.005Z,73.76
2019-02-14T22:47:06.148Z,73.58
2019-02-14T22:49:31.982Z,73.68
2019-02-14T22:52:04.223Z,73.69
2019-02-14T22:54:30.074Z,73.61
2019-02-14T22:56:59.531Z,73.37
2019-02-14T22:59:25.602Z,73.36
2019-02-14T23:01:51.431Z,73.33
2019-02-14T23:04:17.209Z,73.28
2019-02-14T23:06:43.042Z,72.96
2019-02-14T23:09:09.103Z,72.72
2019-02-14T23:11:37.978Z,72.89
2019-02-14T23:14:03.847Z,72.64
2019-02-14T23:16:31.888Z,72.42
2019-02-14T23:18:58.034Z,71.84
2019-02-14T23:21:23.840Z,71.70
2019-02-14T23:23:49.978Z,71.84
2019-02-14T23:26:15.766Z,71.93
2019-02-14T23:28:43.766Z,72.37
2019-02-14T23:31:09.690Z,72.84
2019-02-14T23:33:38.799Z,73.59
2019-02-14T23:36:05.083Z,73.48
2019-02-14T23:38:33.120Z,73.61
2019-02-14T23:40:58.960Z,73.67
2019-02-14T23:43:27.709Z,74.79
2019-02-14T23:45:56.977Z,74.62
2019-02-14T23:48:23.096Z,74.37
2019-02-14T23:50:48.907Z,74.27
2019-02-14T23:53:17.780Z,74.49
2019-02-14T23:55:43.862Z,75.10
2019-02-14T23:58:10.113Z,75.11
